Time;durP1;ratioP1;P1;durP2;ratioP2;P2;SDS_P1;SDS_P2;PMS_P1;PMS_P2;Temp;Humidity;BMP_temperature;BMP_pressure;BME280_temperature;BME280_humidity;BME280_pressure;Samples;Min_cycle;Max_cycle;Signal;HPM_P1;HPM_P2
2022/10/07 08:07:06;;;;;;;11.40;6.15;;;;;;;20.23;100.00;100972.33;1853037;76;22695;-74
2022/10/07 08:09:36;;;;;;;41.40;23.15;;;;;;;20.21;100.00;100985.44;1841547;77;20994;-75
2022/10/07 08:12:03;;;;;;;18.05;8.68;;;;;;;20.27;100.00;100988.19;1792650;79;21558;-77
2022/10/07 08:14:30;;;;;;;11.20;5.80;;;;;;;20.45;100.00;100983.91;1788943;79;21044;-85
2022/10/07 08:16:59;;;;;;;14.73;7.78;;;;;;;20.69;100.00;100987.93;1815929;77;21492;-82
2022/10/07 08:19:29;;;;;;;15.93;5.75;;;;;;;20.98;100.00;100972.84;1795731;78;21074;-81
2022/10/07 08:21:57;;;;;;;10.20;5.03;;;;;;;21.28;100.00;100975.02;1798617;77;21041;-83
2022/10/07 08:24:26;;;;;;;10.05;4.72;;;;;;;21.58;100.00;100976.70;1802810;79;21026;-80
2022/10/07 08:26:54;;;;;;;11.03;5.30;;;;;;;21.90;100.00;100977.21;1818155;79;21015;-78
2022/10/07 08:29:22;;;;;;;8.63;4.55;;;;;;;22.13;100.00;100982.97;1805066;77;20998;-77
2022/10/07 08:31:49;;;;;;;8.60;4.85;;;;;;;22.32;100.00;100989.39;1811988;78;21531;-78
2022/10/07 08:34:18;;;;;;;8.48;5.00;;;;;;;22.55;100.00;100988.73;1785903;79;21007;-79
2022/10/07 08:36:47;;;;;;;9.13;5.12;;;;;;;22.80;100.00;100987.02;1792109;78;20984;-73
2022/10/07 08:39:13;;;;;;;11.20;5.28;;;;;;;23.00;100.00;100998.67;1823866;78;21040;-75
2022/10/07 08:42:04;;;;;;;8.03;4.83;;;;;;;23.21;100.00;101002.04;1818726;78;20988;-78
2022/10/07 08:44:50;;;;;;;18.00;7.45;;;;;;;23.36;100.00;101004.41;1820750;78;20989;-77
2022/10/07 08:47:38;;;;;;;11.55;5.75;;;;;;;23.46;100.00;101011.57;1802292;79;21020;-76
2022/10/07 08:50:16;;;;;;;7.22;4.80;;;;;;;23.56;100.00;101015.17;1802693;80;21168;-77
2022/10/07 08:52:58;;;;;;;9.43;4.92;;;;;;;23.56;100.00;101017.39;1803786;79;20953;-76
2022/10/07 08:55:39;;;;;;;11.25;4.78;;;;;;;23.67;100.00;101010.22;1816219;78;20975;-78
2022/10/07 08:58:42;;;;;;;9.73;5.35;;;;;;;23.79;100.00;101011.11;1769348;80;21029;-76
2022/10/07 09:01:27;;;;;;;76.07;44.27;;;;;;;23.89;100.00;101017.48;1765774;80;21088;-78
2022/10/07 09:04:02;;;;;;;70.70;49.05;;;;;;;23.96;100.00;101021.53;1723244;83;21101;-74
2022/10/07 09:06:41;;;;;;;12.60;7.83;;;;;;;24.05;100.00;101014.58;1714528;83;21078;-76
2022/10/07 09:09:19;;;;;;;12.82;6.05;;;;;;;24.15;100.00;101016.75;1652796;85;21057;-77
2022/10/07 09:11:47;;;;;;;9.63;5.33;;;;;;;24.20;100.00;101019.64;1701043;84;21076;-74
2022/10/07 09:14:29;;;;;;;9.08;4.87;;;;;;;24.34;100.00;101018.88;1692085;84;21467;-76
2022/10/07 09:17:04;;;;;;;12.65;5.10;;;;;;;24.40;100.00;101028.45;1676350;84;21116;-72
2022/10/07 09:19:35;;;;;;;10.32;5.33;;;;;;;24.31;100.00;101035.41;1683898;84;21060;-76
2022/10/07 09:22:36;;;;;;;9.98;4.75;;;;;;;24.10;100.00;101025.77;1678453;84;21137;-77
2022/10/07 09:25:25;;;;;;;6.80;4.40;;;;;;;24.12;100.00;101029.67;1696669;82;21033;-76
2022/10/07 09:27:53;;;;;;;10.30;4.78;;;;;;;24.12;100.00;101022.77;1602764;89;21131;-77
2022/10/07 09:30:24;;;;;;;6.83;4.25;;;;;;;24.13;100.00;101023.89;1577108;91;21078;-78
2022/10/07 09:32:53;;;;;;;8.98;5.05;;;;;;;24.20;100.00;101022.41;1576700;90;21051;-76
2022/10/07 09:35:25;;;;;;;6.40;4.50;;;;;;;24.25;100.00;101020.60;1610461;87;21105;-73
2022/10/07 09:38:03;;;;;;;7.87;3.90;;;;;;;24.17;100.00;101029.78;1634760;86;21060;-73
2022/10/07 09:43:31;;;;;;;7.80;4.78;;;;;;;24.32;100.00;101030.17;1683196;85;21039;-72
2022/10/07 09:45:59;;;;;;;10.10;4.70;;;;;;;24.43;100.00;101029.87;1631593;87;21592;-71
2022/10/07 09:48:32;;;;;;;11.22;5.37;;;;;;;24.47;100.00;101033.00;1631178;88;21586;-73
2022/10/07 09:51:16;;;;;;;8.65;4.30;;;;;;;24.52;100.00;101029.81;1630631;86;21157;-74
2022/10/07 09:54:02;;;;;;;8.33;4.20;;;;;;;24.53;100.00;101030.68;1622026;88;21026;-75
2022/10/07 09:56:38;;;;;;;7.67;3.83;;;;;;;24.19;100.00;101038.70;1594283;90;21124;-73
2022/10/07 09:59:29;;;;;;;7.70;4.03;;;;;;;23.99;100.00;101023.28;1594664;90;21042;-77
2022/10/07 10:02:16;;;;;;;5.80;3.77;;;;;;;23.81;100.00;101028.31;1537226;92;21631;-75
2022/10/07 10:04:51;;;;;;;9.33;4.40;;;;;;;23.71;100.00;101033.55;1530965;94;21093;-71
2022/10/07 10:07:31;;;;;;;9.50;4.80;;;;;;;23.56;100.00;101026.22;1538896;93;21140;-75
2022/10/07 10:10:06;;;;;;;8.70;3.95;;;;;;;23.40;100.00;101029.08;1486344;96;21583;-72
2022/10/07 10:12:36;;;;;;;29.82;17.98;;;;;;;23.58;100.00;101024.06;1472281;95;21224;-71
2022/10/07 10:15:06;;;;;;;10.38;5.62;;;;;;;23.85;100.00;101014.88;1450790;98;21141;-70
2022/10/07 10:17:38;;;;;;;7.55;3.90;;;;;;;24.09;100.00;101007.49;1434542;98;22034;-75
2022/10/07 10:20:42;;;;;;;6.97;3.50;;;;;;;24.32;100.00;101010.83;1476930;96;21096;-73
2022/10/07 10:23:31;;;;;;;14.85;3.90;;;;;;;24.57;100.00;101005.64;1469779;98;21160;-74
2022/10/07 10:26:32;;;;;;;3.67;2.75;;;;;;;24.86;100.00;101007.98;1470050;98;21207;-73
2022/10/07 10:29:45;;;;;;;6.20;3.25;;;;;;;25.02;100.00;101014.69;1470485;97;21195;-74
2022/10/07 10:32:35;;;;;;;5.42;3.52;;;;;;;25.14;100.00;101007.72;1470637;98;21083;-73
2022/10/07 10:35:24;;;;;;;5.83;3.70;;;;;;;24.79;100.00;101010.86;1470462;97;21175;-73
2022/10/07 10:37:58;;;;;;;10.43;4.40;;;;;;;23.97;100.00;101003.31;1470426;98;21098;-74
2022/10/07 10:40:41;;;;;;;13.22;5.45;;;;;;;23.41;100.00;101010.91;1467054;98;21176;-76
2022/10/07 10:43:33;;;;;;;23.77;9.60;;;;;;;23.13;100.00;101009.55;1480096;96;21648;-75
2022/10/07 10:46:17;;;;;;;17.35;6.58;;;;;;;22.87;100.00;101007.91;1497558;96;21300;-74
2022/10/07 10:49:02;;;;;;;5.37;3.90;;;;;;;22.72;100.00;101005.55;1457576;98;21085;-75
2022/10/07 10:52:17;;;;;;;5.50;3.47;;;;;;;22.80;100.00;100998.04;1480193;96;21166;-73
2022/10/07 10:55:18;;;;;;;;;;;;;;;23.00;100.00;101004.19;1510852;94;21611;-72
2022/10/07 10:58:02;;;;;;;6.60;3.30;;;;;;;23.36;100.00;100997.52;1529150;90;20149;-73
2022/10/07 11:01:02;;;;;;;5.28;3.00;;;;;;;23.57;100.00;100993.37;1568837;89;21118;-73
2022/10/07 11:03:34;;;;;;;5.78;3.40;;;;;;;23.80;100.00;100982.98;1591139;90;21046;-73
2022/10/07 11:06:04;;;;;;;;;;;;;;;24.14;100.00;100972.26;1603074;87;21141;-73
2022/10/07 11:08:33;;;;;;;38.58;18.00;;;;;;;24.35;100.00;100981.34;1638063;87;20155;-73
2022/10/07 11:11:16;;;;;;;37.73;16.12;;;;;;;24.20;100.00;100980.95;1638685;87;21603;-74
2022/10/07 11:13:55;;;;;;;10.98;5.78;;;;;;;23.88;100.00;100984.86;1617914;87;21591;-73
2022/10/07 11:16:40;;;;;;;16.25;7.37;;;;;;;23.56;100.00;100982.05;1637436;87;21246;-75
2022/10/07 11:19:23;;;;;;;31.33;18.25;;;;;;;23.23;100.00;100992.47;1637031;88;21090;-72
2022/10/07 11:21:52;;;;;;;16.55;8.20;;;;;;;22.88;100.00;100997.75;1637173;88;21066;-75
2022/10/07 11:24:30;;;;;;;5.58;3.80;;;;;;;22.58;100.00;100994.34;1637069;88;21082;-74
2022/10/07 11:30:17;;;;;;;6.42;3.33;;;;;;;22.61;100.00;100998.04;1609251;88;21068;-74
2022/10/07 11:33:05;;;;;;;7.28;3.10;;;;;;;22.86;100.00;100997.97;1622461;88;21579;-76
2022/10/07 11:35:50;;;;;;;7.45;3.42;;;;;;;23.19;100.00;100995.91;1622232;88;21124;-74
2022/10/07 11:38:20;;;;;;;4.37;3.10;;;;;;;23.52;100.00;100990.50;1566279;87;21078;-74
2022/10/07 11:40:55;;;;;;;6.72;3.35;;;;;;;23.66;100.00;100991.99;1564713;92;21054;-76
2022/10/07 11:43:42;;;;;;;5.72;3.10;;;;;;;23.52;100.00;100996.86;1565100;91;22468;-72
2022/10/07 11:46:23;;;;;;;108.95;72.22;;;;;;;23.20;100.00;101003.97;1542814;93;21050;-72
2022/10/07 11:49:20;;;;;;;52.43;36.00;;;;;;;22.79;100.00;100999.97;1539110;92;21128;-72
2022/10/07 11:52:26;;;;;;;14.55;7.00;;;;;;;22.47;100.00;101004.72;1553343;92;21171;-78
2022/10/07 11:55:26;;;;;;;9.85;4.78;;;;;;;22.31;100.00;100990.98;1553941;91;21060;-73
2022/10/07 11:57:58;;;;;;;4.65;3.22;;;;;;;22.41;100.00;100994.62;1553657;91;21108;-73
2022/10/07 12:00:29;;;;;;;10.00;4.33;;;;;;;22.63;100.00;100990.89;1567062;89;21163;-72
2022/10/07 12:03:21;;;;;;;4.30;3.40;;;;;;;22.87;100.00;100991.91;1557777;91;21094;-70
2022/10/07 12:05:54;;;;;;;5.83;3.10;;;;;;;23.14;100.00;100991.08;1565816;89;21080;-71
2022/10/07 12:08:37;;;;;;;6.83;3.33;;;;;;;23.44;100.00;100990.27;1576648;91;21118;-72
2022/10/07 12:11:15;;;;;;;8.18;2.90;;;;;;;23.69;100.00;100985.98;1574821;91;21138;-71
2022/10/07 12:13:52;;;;;;;5.50;2.72;;;;;;;23.75;100.00;100991.95;1524493;93;21624;-73
2022/10/07 12:16:31;;;;;;;4.40;2.77;;;;;;;23.59;100.00;100989.32;1505262;94;21568;-72
2022/10/07 12:19:10;;;;;;;5.22;2.87;;;;;;;23.36;100.00;100993.37;1503673;94;21112;-73
2022/10/07 12:22:02;;;;;;;5.17;2.80;;;;;;;23.11;100.00;100992.95;1506346;94;21131;-72
2022/10/07 12:24:34;;;;;;;6.65;2.67;;;;;;;22.98;100.00;100986.16;1519880;94;21618;-72
2022/10/07 12:27:12;;;;;;;6.28;3.30;;;;;;;22.93;100.00;100985.50;1539018;91;21066;-73
2022/10/07 12:29:57;;;;;;;14.98;6.28;;;;;;;22.92;100.00;100989.31;1550531;92;21236;-72
2022/10/07 12:32:59;;;;;;;9.53;4.22;;;;;;;23.00;100.00;100984.02;1533969;93;21061;-75
2022/10/07 12:35:35;;;;;;;7.85;3.65;;;;;;;22.89;100.00;100993.90;1549673;92;21148;-72
2022/10/07 12:38:13;;;;;;;5.28;2.80;;;;;;;22.66;100.00;100995.41;1559417;92;21069;-72
2022/10/07 12:40:41;;;;;;;4.58;2.40;;;;;;;22.47;100.00;100994.56;1583981;89;21137;-72
2022/10/07 12:43:33;;;;;;;3.85;2.27;;;;;;;22.18;100.00;100996.89;1595622;90;21093;-72
2022/10/07 12:46:04;;;;;;;4.17;2.50;;;;;;;21.95;100.00;100997.49;1595198;90;21070;-73
2022/10/07 12:48:42;;;;;;;4.10;2.55;;;;;;;21.83;100.00;101001.20;1633571;86;20993;-72
2022/10/07 12:51:28;;;;;;;6.50;3.62;;;;;;;21.90;100.00;100990.98;1676131;85;21085;-74
2022/10/07 12:53:57;;;;;;;11.40;4.62;;;;;;;22.04;100.00;100998.06;1690991;85;21536;-73
2022/10/07 12:56:28;;;;;;;21.45;8.80;;;;;;;22.03;100.00;100993.64;1690091;84;21152;-73
2022/10/07 13:02:34;;;;;;;5.78;3.20;;;;;;;21.71;100.00;100999.67;1680796;85;21079;-72
2022/10/07 13:05:48;;;;;;;23.32;8.35;;;;;;;21.43;100.00;100998.12;1683122;85;21064;-72
2022/10/07 13:08:50;;;;;;;23.50;9.05;;;;;;;21.02;100.00;101000.75;1691179;85;21162;-73
2022/10/07 13:11:35;;;;;;;9.25;3.80;;;;;;;20.50;100.00;100999.23;1810082;79;21542;-70
2022/10/07 13:14:21;;;;;;;;;;;;;;;20.12;100.00;100995.78;1812937;79;21052;-71
2022/10/07 13:17:14;;;;;;;5.75;3.80;;;;;;;19.95;100.00;100997.25;1783099;79;20156;-72
2022/10/07 13:20:24;;;;;;;104.58;73.60;;;;;;;19.79;100.00;100995.75;1782385;80;21035;-73
2022/10/07 13:22:51;;;;;;;12.85;5.90;;;;;;;19.65;100.00;101003.91;1782684;80;21007;-73
2022/10/07 13:25:19;;;;;;;5.47;3.50;;;;;;;19.70;100.00;100990.41;1757043;80;21031;-76
2022/10/07 13:27:53;;;;;;;72.37;41.08;;;;;;;19.91;100.00;100984.47;1783143;80;21043;-75
2022/10/07 13:30:39;;;;;;;14.65;6.37;;;;;;;20.21;100.00;100990.92;1782852;80;21007;-74
2022/10/07 13:33:29;;;;;;;5.85;3.65;;;;;;;20.62;100.00;100989.31;1783063;80;21074;-72
2022/10/07 13:36:27;;;;;;;6.80;3.17;;;;;;;21.16;100.00;100989.14;1782982;80;21031;-72
2022/10/07 13:39:11;;;;;;;5.50;3.00;;;;;;;21.59;100.00;100978.92;1783142;80;21023;-75
2022/10/07 13:41:42;;;;;;;3.30;2.50;;;;;;;21.86;100.00;100986.99;1692542;85;21139;-73
2022/10/07 13:44:19;;;;;;;10.15;3.98;;;;;;;21.97;100.00;100983.00;1685498;85;21056;-74
2022/10/07 13:46:53;;;;;;;8.55;3.30;;;;;;;21.99;100.00;100980.86;1685300;84;21084;-73
2022/10/07 13:49:33;;;;;;;8.05;3.10;;;;;;;21.79;100.00;100989.24;1685595;85;21048;-71
2022/10/07 13:52:01;;;;;;;6.08;2.95;;;;;;;21.70;100.00;100981.48;1685422;85;21124;-73
2022/10/07 13:54:31;;;;;;;3.85;2.45;;;;;;;21.64;100.00;100979.61;1685221;85;21125;-71
2022/10/07 13:57:01;;;;;;;5.22;2.80;;;;;;;21.53;100.00;100984.77;1685378;85;21075;-72
2022/10/07 13:59:28;;;;;;;6.03;3.20;;;;;;;21.44;100.00;100981.92;1685334;85;21115;-71
2022/10/07 14:01:57;;;;;;;6.08;2.65;;;;;;;21.40;100.00;100980.14;1687356;84;20990;-73
2022/10/07 14:04:33;;;;;;;4.70;3.12;;;;;;;21.42;100.00;100974.42;1695710;85;21562;-73
2022/10/07 14:07:19;;;;;;;10.05;4.67;;;;;;;21.37;100.00;100971.48;1660655;86;21555;-72
2022/10/07 14:10:03;;;;;;;9.20;3.47;;;;;;;21.18;100.00;100978.80;1690397;84;21084;-75
2022/10/07 14:13:02;;;;;;;5.05;2.87;;;;;;;20.87;100.00;100977.62;1612542;89;21557;-73
2022/10/07 14:15:34;;;;;;;6.87;3.45;;;;;;;20.52;100.00;100982.54;1620908;87;21050;-73
2022/10/07 14:18:10;;;;;;;9.15;3.70;;;;;;;20.15;100.00;100983.02;1559928;89;21171;-74
2022/10/07 14:20:47;;;;;;;9.85;3.87;;;;;;;19.89;100.00;100981.93;1608078;89;21126;-74
2022/10/07 14:23:30;;;;;;;30.90;10.88;;;;;;;19.65;100.00;100981.95;1594452;89;21109;-73
2022/10/07 14:26:08;;;;;;;38.73;13.58;;;;;;;19.45;100.00;100992.89;1553623;92;21093;-73
2022/10/07 14:28:37;;;;;;;81.40;31.07;;;;;;;19.22;100.00;100987.75;1555781;92;21132;-74
2022/10/07 14:37:15;;;;;;;48.45;17.90;;;;;;;18.53;100.00;100993.58;1565283;90;21679;-74
2022/10/07 14:39:46;;;;;;;57.20;18.80;;;;;;;18.26;100.00;100998.55;1568917;91;21109;-73
2022/10/07 14:45:02;;;;;;;34.18;11.50;;;;;;;17.78;100.00;100999.98;1578055;91;21523;-73
2022/10/07 14:47:31;;;;;;;23.75;7.58;;;;;;;17.55;100.00;100991.12;1582766;90;21547;-74
2022/10/07 14:49:59;;;;;;;21.17;6.70;;;;;;;17.37;100.00;100999.73;1588703;89;21096;-74
2022/10/07 14:52:45;;;;;;;16.48;5.10;;;;;;;17.19;100.00;100997.42;1591244;90;21077;-74
2022/10/07 14:55:24;;;;;;;15.25;4.95;;;;;;;17.00;100.00;100996.98;1591247;90;21057;-74
2022/10/07 14:57:50;;;;;;;14.00;4.35;;;;;;;16.82;100.00;101000.08;1591153;89;21036;-74
2022/10/07 15:00:22;;;;;;;11.40;4.42;;;;;;;16.64;100.00;100996.36;1594517;88;21614;-73
2022/10/07 15:02:49;;;;;;;10.32;3.83;;;;;;;16.50;100.00;100997.17;1630873;87;21101;-74
2022/10/07 15:05:16;;;;;;;11.50;4.50;;;;;;;16.37;100.00;100991.52;1656359;87;21057;-73
2022/10/07 15:07:44;;;;;;;10.78;4.40;;;;;;;16.25;100.00;100995.21;1655276;86;21101;-74
2022/10/07 15:10:20;;;;;;;13.78;4.53;;;;;;;16.10;100.00;101001.48;1654465;87;21002;-75
2022/10/07 15:12:48;;;;;;;10.08;4.60;;;;;;;15.98;100.00;100996.66;1654420;87;21129;-74
2022/10/07 15:15:15;;;;;;;14.50;4.22;;;;;;;15.87;100.00;100998.78;1641760;87;21013;-74
2022/10/07 15:17:43;;;;;;;11.22;4.12;;;;;;;15.76;100.00;100992.40;1587742;90;21040;-74
2022/10/07 15:20:12;;;;;;;11.10;3.95;;;;;;;15.67;100.00;101003.84;1645663;85;21045;-75
2022/10/07 15:22:41;;;;;;;8.30;3.90;;;;;;;15.55;100.00;100996.59;1680627;84;21027;-74
2022/10/07 15:25:10;;;;;;;8.15;3.77;;;;;;;15.45;100.00;101004.14;1667793;86;21003;-74
2022/10/07 15:27:37;;;;;;;9.53;4.28;;;;;;;15.40;100.00;101000.27;1678634;84;21059;-74
2022/10/07 15:30:06;;;;;;;10.85;3.83;;;;;;;15.34;100.00;101001.31;1673627;86;21582;-73
2022/10/07 15:32:34;;;;;;;5.97;3.50;;;;;;;15.32;100.00;101002.53;1635862;88;21065;-74
2022/10/07 15:35:01;;;;;;;10.48;4.00;;;;;;;15.28;100.00;101005.26;1634874;86;21066;-74
2022/10/07 15:37:28;;;;;;;12.15;4.03;;;;;;;15.22;100.00;101002.73;1714024;84;21139;-74
2022/10/07 15:39:55;;;;;;;5.28;3.60;;;;;;;15.15;100.00;101002.59;1722372;83;21002;-74
2022/10/07 15:42:24;;;;;;;9.35;3.67;;;;;;;15.09;100.00;101006.04;1722466;83;21116;-74
2022/10/07 15:44:51;;;;;;;8.18;3.50;;;;;;;15.05;100.00;101007.92;1724165;83;20974;-73
2022/10/07 15:47:18;;;;;;;9.25;3.62;;;;;;;14.98;100.00;101001.84;1716412;83;21130;-74
2022/10/07 15:49:45;;;;;;;8.40;3.90;;;;;;;14.93;100.00;101007.48;1712236;84;21063;-73
2022/10/07 15:52:11;;;;;;;8.53;3.45;;;;;;;14.87;100.00;101008.16;1712054;84;21006;-74
2022/10/07 15:54:38;;;;;;;10.25;3.42;;;;;;;14.80;100.00;101017.05;1711843;84;21007;-74
2022/10/07 15:57:05;;;;;;;7.95;3.87;;;;;;;14.76;100.00;101019.77;1712434;84;21019;-73
2022/10/07 15:59:31;;;;;;;10.55;3.62;;;;;;;14.72;100.00;101012.98;1712126;84;21109;-74
2022/10/07 16:02:00;;;;;;;12.28;3.92;;;;;;;14.65;100.00;101021.52;1671812;84;21087;-75
2022/10/07 16:04:27;;;;;;;10.63;4.40;;;;;;;14.65;100.00;101021.52;1663024;86;21039;-74
2022/10/07 16:06:54;;;;;;;6.90;3.25;;;;;;;14.60;100.00;101026.09;1667232;84;21133;-75
2022/10/07 16:09:21;;;;;;;7.67;3.50;;;;;;;14.54;100.00;101022.70;1702129;84;21545;-74
2022/10/07 16:11:49;;;;;;;7.47;3.17;;;;;;;14.47;100.00;101018.12;1702365;84;21054;-74
2022/10/07 16:14:16;;;;;;;7.08;3.22;;;;;;;14.45;100.00;101023.73;1702150;84;21059;-74
2022/10/07 16:16:46;;;;;;;9.03;3.50;;;;;;;14.41;100.00;101027.31;1702271;84;21063;-74
2022/10/07 16:19:12;;;;;;;5.55;3.40;;;;;;;14.37;100.00;101030.02;1702517;84;21036;-74
2022/10/07 16:21:41;;;;;;;9.15;3.77;;;;;;;14.32;100.00;101026.96;1702159;84;20987;-75
2022/10/07 16:24:14;;;;;;;7.50;3.65;;;;;;;14.27;100.00;101024.42;1701952;84;21020;-74
2022/10/07 16:26:42;;;;;;;6.90;3.60;;;;;;;14.21;100.00;101024.60;1702167;83;20995;-75
2022/10/07 16:31:59;;;;;;;9.85;3.98;;;;;;;14.12;100.00;101022.91;1702190;84;20999;-73
2022/10/07 16:34:27;;;;;;;11.45;4.10;;;;;;;14.06;100.00;101020.37;1702386;84;20992;-74
2022/10/07 16:36:54;;;;;;;7.97;4.03;;;;;;;14.02;100.00;101024.42;1769334;80;21072;-74
2022/10/07 16:39:21;;;;;;;9.53;4.22;;;;;;;13.96;100.00;101023.23;1770556;80;21519;-73
2022/10/07 16:41:50;;;;;;;9.83;4.35;;;;;;;13.90;100.00;101028.50;1770830;81;21094;-73
2022/10/07 16:44:18;;;;;;;9.83;4.60;;;;;;;13.83;100.00;101025.62;1770816;80;21008;-75
2022/10/07 16:46:45;;;;;;;10.55;4.42;;;;;;;13.79;100.00;101024.23;1770549;81;21040;-73
2022/10/07 16:49:14;;;;;;;14.30;5.28;;;;;;;13.75;100.00;101025.61;1770557;81;21021;-74
2022/10/07 16:51:41;;;;;;;27.62;8.68;;;;;;;13.71;100.00;101024.25;1770655;81;21471;-74
2022/10/07 16:54:11;;;;;;;34.83;12.47;;;;;;;13.64;100.00;101023.55;1770502;81;21017;-74
2022/10/07 16:56:40;;;;;;;54.38;16.45;;;;;;;13.59;100.00;101026.42;1736455;82;21467;-73
2022/10/07 16:59:07;;;;;;;45.20;13.85;;;;;;;13.52;100.00;101019.44;1770665;80;20997;-74
2022/10/07 17:01:34;;;;;;;31.55;10.88;;;;;;;13.49;100.00;101021.13;1736500;81;21481;-73
2022/10/07 17:04:01;;;;;;;27.07;9.15;;;;;;;13.50;100.00;101016.56;1696014;84;21065;-74
2022/10/07 17:06:28;;;;;;;18.12;7.55;;;;;;;13.50;100.00;101015.20;1705370;84;21099;-74
2022/10/07 17:09:00;;;;;;;17.65;6.50;;;;;;;13.49;100.00;101022.48;1760314;81;21073;-73
2022/10/07 17:11:29;;;;;;;16.05;6.33;;;;;;;13.47;100.00;101021.80;1771250;80;21040;-74
2022/10/07 17:14:03;;;;;;;17.82;6.90;;;;;;;13.43;100.00;101025.36;1770797;81;20945;-74
2022/10/07 17:16:36;;;;;;;17.30;6.40;;;;;;;13.42;100.00;101024.17;1732617;81;21128;-74
2022/10/07 17:19:05;;;;;;;13.43;5.30;;;;;;;13.39;100.00;101021.80;1673766;86;21064;-74
2022/10/07 17:21:35;;;;;;;10.30;5.00;;;;;;;13.35;100.00;101018.56;1673787;86;21080;-74
2022/10/07 17:24:03;;;;;;;14.35;5.12;;;;;;;13.33;100.00;101023.29;1673836;84;21036;-74
2022/10/07 17:26:30;;;;;;;14.33;5.92;;;;;;;13.32;100.00;101022.97;1661207;86;21142;-72
2022/10/07 17:29:01;;;;;;;27.67;9.73;;;;;;;13.32;100.00;101024.84;1661393;85;21641;-74
2022/10/07 17:31:29;;;;;;;24.30;8.68;;;;;;;13.31;100.00;101025.33;1542898;93;21117;-72
2022/10/07 17:33:57;;;;;;;22.60;7.50;;;;;;;13.29;100.00;101024.61;1542906;93;21045;-74
2022/10/07 17:36:24;;;;;;;14.03;5.60;;;;;;;13.27;100.00;101023.94;1542859;93;21121;-73
2022/10/07 17:38:50;;;;;;;13.32;5.08;;;;;;;13.24;100.00;101028.33;1543010;93;21142;-73
2022/10/07 17:41:21;;;;;;;15.30;5.53;;;;;;;13.21;100.00;101028.64;1543050;93;21187;-73
2022/10/07 17:43:49;;;;;;;13.53;5.83;;;;;;;13.17;100.00;101024.57;1495835;96;21199;-73
2022/10/07 17:46:16;;;;;;;17.57;5.53;;;;;;;13.13;100.00;101022.69;1496152;94;21103;-73
2022/10/07 17:48:49;;;;;;;10.08;4.65;;;;;;;13.10;100.00;101020.30;1496269;96;21071;-73
2022/10/07 17:51:18;;;;;;;12.95;5.47;;;;;;;13.09;100.00;101014.53;1471444;98;21134;-74
2022/10/07 17:53:45;;;;;;;12.93;5.00;;;;;;;13.08;100.00;101016.89;1471549;98;21068;-73
2022/10/07 17:56:13;;;;;;;10.53;4.70;;;;;;;13.09;100.00;101013.18;1471431;98;21132;-73
2022/10/07 17:58:43;;;;;;;14.28;5.10;;;;;;;13.09;100.00;101017.25;1471503;98;21594;-72
2022/10/07 18:01:19;;;;;;;12.40;5.45;;;;;;;13.08;100.00;101012.34;1469565;97;21606;-74
2022/10/07 18:03:58;;;;;;;15.08;6.00;;;;;;;13.05;100.00;101011.78;1467390;98;21107;-74
2022/10/07 18:06:29;;;;;;;12.45;5.33;;;;;;;13.02;100.00;101012.13;1446378;99;21300;-74
2022/10/07 18:09:02;;;;;;;12.05;5.40;;;;;;;12.99;100.00;101007.86;1443793;99;21663;-73
2022/10/07 18:16:58;;;;;;;14.10;6.00;;;;;;;12.86;100.00;101005.61;1533928;93;21034;-75
2022/10/07 18:19:25;;;;;;;13.98;6.65;;;;;;;12.83;100.00;101006.44;1557720;92;21116;-73
2022/10/07 18:21:55;;;;;;;14.40;5.92;;;;;;;12.77;100.00;101010.66;1557623;92;21187;-74
2022/10/07 18:24:25;;;;;;;10.93;5.40;;;;;;;12.72;100.00;101007.58;1557539;92;21550;-74
2022/10/07 18:26:52;;;;;;;12.40;5.22;;;;;;;12.68;100.00;101008.92;1557610;92;21586;-74
2022/10/07 18:29:19;;;;;;;12.20;5.67;;;;;;;12.65;100.00;101005.17;1562467;91;21073;-73
2022/10/07 18:31:46;;;;;;;15.72;6.60;;;;;;;12.59;100.00;100997.17;1608658;89;21081;-75
2022/10/07 18:34:13;;;;;;;15.70;6.65;;;;;;;12.55;100.00;100998.48;1610205;89;21022;-74
2022/10/07 18:36:40;;;;;;;16.87;7.17;;;;;;;12.51;100.00;100993.88;1610492;89;21103;-74
2022/10/07 18:39:10;;;;;;;24.37;9.30;;;;;;;12.48;100.00;100992.00;1610115;89;21349;-74
2022/10/07 18:41:36;;;;;;;23.30;9.93;;;;;;;12.43;100.00;100999.28;1662949;86;21034;-73
2022/10/07 18:44:03;;;;;;;31.02;12.80;;;;;;;12.39;100.00;100997.03;1687111;85;21055;-73
2022/10/07 18:46:29;;;;;;;25.77;10.78;;;;;;;12.33;100.00;100998.02;1687353;85;21063;-72
2022/10/07 18:48:56;;;;;;;28.60;12.70;;;;;;;12.27;100.00;100997.79;1714639;83;21054;-73
2022/10/07 18:51:23;;;;;;;37.67;16.10;;;;;;;12.22;100.00;100992.86;1716597;83;21086;-73
2022/10/07 18:53:50;;;;;;;29.25;12.40;;;;;;;12.18;100.00;100989.26;1713795;84;21528;-74
2022/10/07 18:56:22;;;;;;;24.27;10.58;;;;;;;12.14;100.00;100994.99;1713535;84;21043;-74
2022/10/07 18:58:51;;;;;;;22.15;9.53;;;;;;;12.13;100.00;100986.53;1713838;84;21006;-72
2022/10/07 19:01:22;;;;;;;23.07;9.40;;;;;;;12.11;100.00;100983.13;1713828;83;21026;-74
2022/10/07 19:04:00;;;;;;;19.45;7.85;;;;;;;12.09;100.00;100983.80;1768568;81;21045;-73
2022/10/07 19:06:28;;;;;;;17.12;7.28;;;;;;;12.06;100.00;100971.91;1777103;81;20990;-73
2022/10/07 19:08:59;;;;;;;19.60;7.87;;;;;;;12.07;100.00;100974.10;1769938;80;21063;-74
2022/10/07 19:13:58;;;;;;;23.70;8.45;;;;;;;12.09;100.00;100976.14;1669918;85;21106;-74
2022/10/07 19:16:40;;;;;;;26.37;10.30;;;;;;;12.11;100.00;100977.70;1706367;83;21030;-74
2022/10/07 19:19:15;;;;;;;22.42;8.40;;;;;;;12.10;100.00;100976.51;1663569;85;21094;-74
2022/10/07 19:21:45;;;;;;;17.52;6.53;;;;;;;12.07;100.00;100978.17;1656811;87;21999;-74
2022/10/07 19:24:11;;;;;;;19.90;7.85;;;;;;;12.02;100.00;100981.34;1655702;86;21020;-73
2022/10/07 19:26:41;;;;;;;24.07;9.70;;;;;;;11.98;100.00;100979.96;1655173;87;21091;-74
2022/10/07 19:29:10;;;;;;;31.55;14.45;;;;;;;11.96;100.00;100979.28;1655066;87;21092;-73
2022/10/07 19:31:45;;;;;;;31.25;12.35;;;;;;;11.93;100.00;100979.58;1684304;85;21086;-74
2022/10/07 19:34:18;;;;;;;31.82;12.10;;;;;;;11.91;100.00;100981.60;1661275;86;21614;-74
2022/10/07 19:39:17;;;;;;;25.52;8.93;;;;;;;11.85;100.00;100985.77;1576900;91;21071;-72
2022/10/07 19:41:44;;;;;;;21.00;6.83;;;;;;;11.84;100.00;100984.05;1569259;91;21051;-74
2022/10/07 19:44:12;;;;;;;15.72;5.53;;;;;;;11.83;100.00;100985.08;1569197;91;21099;-74
2022/10/07 19:46:39;;;;;;;14.38;5.58;;;;;;;11.84;100.00;100988.63;1569302;91;21549;-74
2022/10/07 19:49:06;;;;;;;16.20;5.97;;;;;;;11.85;100.00;100993.89;1570146;91;21133;-74
2022/10/07 19:51:33;;;;;;;12.07;5.50;;;;;;;11.83;100.00;100989.62;1570050;91;21145;-73
2022/10/07 19:54:02;;;;;;;14.20;5.25;;;;;;;11.81;100.00;100992.99;1569603;91;21078;-73
2022/10/07 19:56:31;;;;;;;11.18;5.00;;;;;;;11.80;100.00;100988.59;1569407;91;21159;-73
2022/10/07 19:59:07;;;;;;;7.50;4.00;;;;;;;11.79;100.00;100991.79;1569416;91;21524;-74
2022/10/07 20:01:36;;;;;;;9.40;4.20;;;;;;;11.80;100.00;100992.66;1533589;92;21119;-74
2022/10/07 20:04:17;;;;;;;10.23;4.53;;;;;;;11.77;100.00;100987.91;1515719;95;21135;-74
2022/10/07 20:06:44;;;;;;;31.48;10.90;;;;;;;11.79;100.00;100994.50;1476288;97;21654;-73
2022/10/07 20:09:14;;;;;;;53.78;18.57;;;;;;;11.77;100.00;100993.33;1478706;97;21207;-74
2022/10/07 20:11:43;;;;;;;53.90;18.75;;;;;;;11.76;100.00;100992.13;1516038;94;21111;-72
2022/10/07 20:14:10;;;;;;;87.53;28.90;;;;;;;11.73;100.00;100991.07;1522451;94;21149;-73
2022/10/07 20:16:37;;;;;;;54.13;19.70;;;;;;;11.70;100.00;100992.22;1538602;91;21065;-72
2022/10/07 20:19:11;;;;;;;57.85;19.82;;;;;;;11.68;100.00;100995.59;1538606;93;21640;-74
2022/10/07 20:21:39;;;;;;;70.52;24.67;;;;;;;11.67;100.00;100997.09;1539076;93;21661;-74
2022/10/07 20:24:07;;;;;;;30.35;11.30;;;;;;;11.65;100.00;101008.11;1538698;93;21111;-73